createdAt,value
2022-10-08T00:01:42.734Z,15.28
2022-10-08T00:04:12.268Z,15.22
2022-10-08T00:06:40.387Z,15.27
2022-10-08T00:09:09.798Z,15.03
2022-10-08T00:11:39.487Z,15.11
2022-10-08T00:14:08.944Z,15.27
2022-10-08T00:16:39.814Z,15.22
2022-10-08T00:19:10.268Z,15.21
2022-10-08T00:21:39.789Z,14.98
2022-10-08T00:24:10.310Z,15.01
2022-10-08T00:26:43.582Z,14.93
2022-10-08T00:29:14.445Z,14.94
2022-10-08T00:31:44.784Z,14.99
2022-10-08T00:34:15.225Z,15.05
2022-10-08T00:36:43.572Z,15.10
2022-10-08T00:39:14.938Z,15.02
2022-10-08T00:41:44.277Z,14.97
2022-10-08T00:45:01.202Z,14.91
2022-10-08T00:47:37.000Z,14.75
2022-10-08T00:50:10.387Z,14.74
2022-10-08T00:52:41.530Z,14.86
2022-10-08T00:55:11.560Z,14.68
2022-10-08T00:57:41.223Z,14.82
2022-10-08T01:00:12.413Z,14.82
2022-10-08T01:02:40.510Z,14.85
2022-10-08T01:05:09.910Z,14.74
2022-10-08T01:07:44.484Z,14.75
2022-10-08T01:10:19.719Z,14.71
2022-10-08T01:12:56.544Z,14.88
2022-10-08T01:15:29.932Z,14.85
2022-10-08T01:18:04.922Z,14.81
2022-10-08T01:20:39.753Z,14.78
2022-10-08T01:23:25.636Z,14.64
2022-10-08T01:25:58.069Z,14.83
2022-10-08T01:28:32.249Z,14.69
2022-10-08T01:31:03.323Z,14.55
2022-10-08T01:33:35.118Z,14.71
2022-10-08T01:36:05.295Z,14.77
2022-10-08T01:38:34.953Z,14.72
2022-10-08T01:41:07.382Z,14.80
2022-10-08T01:43:39.961Z,14.73
2022-10-08T01:46:12.067Z,14.67
2022-10-08T01:48:41.383Z,14.58
2022-10-08T01:51:13.944Z,14.64
2022-10-08T01:53:45.950Z,14.59
2022-10-08T01:56:17.594Z,14.58
2022-10-08T01:58:50.089Z,14.66
2022-10-08T02:01:22.522Z,14.64
2022-10-08T02:04:04.675Z,14.42
2022-10-08T02:06:37.172Z,14.56
2022-10-08T02:09:05.849Z,14.42
2022-10-08T02:11:35.893Z,14.60
2022-10-08T02:14:06.234Z,14.55
2022-10-08T02:16:34.912Z,14.53
2022-10-08T02:19:09.087Z,14.50
2022-10-08T02:21:38.720Z,14.45
2022-10-08T02:24:12.826Z,14.43
2022-10-08T02:26:45.929Z,14.38
2022-10-08T02:29:18.200Z,14.14
2022-10-08T02:31:48.650Z,14.40
2022-10-08T02:34:20.275Z,14.37
2022-10-08T02:36:50.990Z,14.31
2022-10-08T02:39:21.178Z,14.31
2022-10-08T02:41:53.088Z,14.32
2022-10-08T02:44:25.928Z,14.33
2022-10-08T02:46:55.551Z,14.44
2022-10-08T02:49:26.142Z,14.42
2022-10-08T02:51:55.074Z,14.30
2022-10-08T02:54:24.326Z,14.38
2022-10-08T02:56:55.991Z,14.45
2022-10-08T02:59:26.674Z,14.46
2022-10-08T03:01:58.668Z,14.39
2022-10-08T03:04:29.223Z,14.26
2022-10-08T03:06:58.617Z,14.13
2022-10-08T03:09:32.216Z,14.21
2022-10-08T03:12:00.647Z,14.29
2022-10-08T03:14:30.524Z,14.20
2022-10-08T03:16:58.663Z,14.06
2022-10-08T03:19:26.829Z,14.22
2022-10-08T03:21:56.272Z,14.24
2022-10-08T03:24:24.336Z,14.35
2022-10-08T03:26:53.429Z,14.30
2022-10-08T03:29:21.579Z,14.27
2022-10-08T03:31:51.573Z,14.27
2022-10-08T03:34:19.613Z,14.44
2022-10-08T03:36:47.638Z,14.46
2022-10-08T03:39:15.876Z,14.31
2022-10-08T03:41:43.868Z,14.31
2022-10-08T03:44:12.532Z,14.38
2022-10-08T03:46:46.403Z,14.46
2022-10-08T03:49:16.054Z,14.32
2022-10-08T03:51:44.060Z,14.41
2022-10-08T03:54:12.106Z,14.37
2022-10-08T03:56:40.152Z,14.48
2022-10-08T03:59:08.410Z,14.48
2022-10-08T04:01:36.602Z,14.61
2022-10-08T04:04:04.731Z,14.52
2022-10-08T04:06:34.171Z,14.49
2022-10-08T04:09:02.224Z,14.52
2022-10-08T04:11:30.449Z,14.64
2022-10-08T04:13:58.477Z,14.53
2022-10-08T04:16:26.507Z,14.48
2022-10-08T04:18:54.641Z,14.29
2022-10-08T04:21:22.693Z,14.50
2022-10-08T04:23:52.292Z,14.50
2022-10-08T04:26:20.336Z,14.32
2022-10-08T04:28:49.170Z,14.35
2022-10-08T04:31:19.277Z,14.49
2022-10-08T04:33:47.868Z,14.33
2022-10-08T04:36:17.163Z,14.37
2022-10-08T04:38:45.949Z,14.36
2022-10-08T04:41:16.772Z,14.29
2022-10-08T04:43:45.930Z,14.47
2022-10-08T04:46:15.516Z,14.72
2022-10-08T04:48:47.659Z,14.67
2022-10-08T04:51:16.192Z,14.57
2022-10-08T04:53:44.371Z,14.64
2022-10-08T04:56:15.895Z,14.49
2022-10-08T04:58:43.975Z,14.55
2022-10-08T05:01:14.542Z,14.61
2022-10-08T05:03:43.985Z,14.52
2022-10-08T05:06:12.730Z,14.37
2022-10-08T05:08:40.801Z,14.37
2022-10-08T05:11:09.265Z,14.40
2022-10-08T05:13:38.958Z,14.50
2022-10-08T05:16:08.955Z,14.48
2022-10-08T05:18:37.919Z,14.59
2022-10-08T05:21:06.838Z,14.62
2022-10-08T05:23:35.107Z,14.77
2022-10-08T05:26:03.541Z,14.75
2022-10-08T05:28:31.611Z,14.69
2022-10-08T05:31:04.231Z,14.76
2022-10-08T05:33:32.357Z,14.63
2022-10-08T05:36:04.023Z,14.56
2022-10-08T05:38:35.082Z,14.84
2022-10-08T05:41:11.605Z,14.74
2022-10-08T05:43:39.966Z,14.76
2022-10-08T05:46:09.916Z,14.74
2022-10-08T05:48:38.201Z,14.87
2022-10-08T05:51:07.269Z,14.85
2022-10-08T05:53:36.751Z,14.81
2022-10-08T05:56:06.442Z,15.00
2022-10-08T05:58:35.250Z,14.89
2022-10-08T06:01:05.393Z,14.92
2022-10-08T06:03:35.481Z,14.86
2022-10-08T06:06:04.236Z,14.81
2022-10-08T06:08:32.552Z,14.87
2022-10-08T06:11:01.238Z,14.86
2022-10-08T06:13:29.750Z,14.86
2022-10-08T06:15:58.260Z,14.82
2022-10-08T06:18:28.038Z,14.97
2022-10-08T06:20:57.497Z,14.99
2022-10-08T06:23:25.571Z,15.03
2022-10-08T06:25:53.596Z,14.95
2022-10-08T06:28:21.693Z,15.06
2022-10-08T06:30:49.773Z,15.00
2022-10-08T06:33:17.871Z,15.05
2022-10-08T06:35:45.907Z,15.06
2022-10-08T06:38:15.339Z,15.01
2022-10-08T06:40:43.391Z,14.85
2022-10-08T06:43:13.631Z,15.04
2022-10-08T06:45:43.370Z,15.07
2022-10-08T06:48:12.243Z,14.99
2022-10-08T06:50:40.985Z,15.00
2022-10-08T06:53:10.755Z,15.05
2022-10-08T06:55:40.215Z,15.14
2022-10-08T06:58:08.363Z,15.09
2022-10-08T07:00:36.454Z,15.10
2022-10-08T07:03:04.651Z,14.94
2022-10-08T07:05:34.466Z,15.04
2022-10-08T07:08:02.617Z,15.01
2022-10-08T07:10:33.235Z,15.20
2022-10-08T07:13:03.422Z,15.08
2022-10-08T07:15:32.773Z,14.99
2022-10-08T07:18:00.829Z,15.01
2022-10-08T07:20:28.853Z,15.11
2022-10-08T07:22:56.864Z,15.01
2022-10-08T07:25:24.911Z,15.17
2022-10-08T07:27:53.120Z,15.14
2022-10-08T07:30:22.562Z,15.29
2022-10-08T07:32:53.526Z,15.36
2022-10-08T07:35:21.665Z,15.39
2022-10-08T07:37:49.733Z,15.42
2022-10-08T07:40:17.816Z,15.42
2022-10-08T07:42:46.137Z,15.46
2022-10-08T07:45:14.560Z,15.43
2022-10-08T07:47:43.902Z,15.39
2022-10-08T07:50:12.104Z,15.54
2022-10-08T07:52:40.132Z,15.42
2022-10-08T07:55:09.004Z,15.41
2022-10-08T07:57:37.123Z,15.43
2022-10-08T08:00:06.053Z,15.35
2022-10-08T08:02:40.378Z,15.43
2022-10-08T08:05:10.385Z,15.56
2022-10-08T08:07:38.419Z,15.51
2022-10-08T08:10:07.560Z,15.49
2022-10-08T08:12:35.608Z,15.55
2022-10-08T08:15:04.226Z,15.64
2022-10-08T08:17:32.306Z,15.66
2022-10-08T08:20:01.613Z,15.77
2022-10-08T08:22:31.001Z,16.01
2022-10-08T08:24:59.072Z,15.87
2022-10-08T08:27:27.189Z,16.05
2022-10-08T08:29:55.234Z,16.16
2022-10-08T08:32:28.228Z,16.27
2022-10-08T08:34:56.786Z,16.42
2022-10-08T08:37:24.926Z,16.48
2022-10-08T08:39:54.337Z,16.53
2022-10-08T08:42:37.801Z,16.50
2022-10-08T08:45:34.324Z,16.52
2022-10-08T08:48:06.283Z,16.68
2022-10-08T08:50:36.336Z,16.89
2022-10-08T08:53:05.563Z,16.86
2022-10-08T08:55:37.913Z,16.79
2022-10-08T08:58:16.521Z,16.88
2022-10-08T09:00:47.224Z,16.96
2022-10-08T09:03:21.607Z,17.34
2022-10-08T09:05:59.270Z,17.25
2022-10-08T09:08:31.892Z,17.37
2022-10-08T09:11:02.953Z,17.48
2022-10-08T09:13:33.576Z,17.64
2022-10-08T09:16:02.087Z,17.79
2022-10-08T09:18:30.397Z,17.84
2022-10-08T09:20:58.534Z,18.09
2022-10-08T09:23:27.752Z,18.43
2022-10-08T09:25:59.022Z,18.42
2022-10-08T09:28:43.110Z,18.51
2022-10-08T09:31:28.356Z,18.38
2022-10-08T09:33:59.575Z,18.27
2022-10-08T09:36:46.190Z,18.03
2022-10-08T09:39:19.926Z,17.78
2022-10-08T09:41:49.325Z,17.79
2022-10-08T09:44:21.036Z,17.63
2022-10-08T09:46:49.800Z,17.55
2022-10-08T09:49:36.169Z,17.53
2022-10-08T09:52:08.086Z,17.79
2022-10-08T09:54:38.084Z,17.96
2022-10-08T09:57:07.615Z,17.97
2022-10-08T09:59:40.799Z,17.98
2022-10-08T10:02:27.724Z,18.14
2022-10-08T10:04:56.805Z,18.11
2022-10-08T10:07:25.164Z,18.23
2022-10-08T10:09:54.970Z,18.41
2022-10-08T10:12:26.321Z,18.42
2022-10-08T10:14:58.489Z,18.29
2022-10-08T10:17:35.672Z,18.24
2022-10-08T10:20:06.822Z,18.29
2022-10-08T10:22:41.378Z,18.56
2022-10-08T10:25:17.934Z,18.63
2022-10-08T10:27:51.756Z,18.63
2022-10-08T10:30:22.214Z,18.63
2022-10-08T10:32:54.257Z,18.65
2022-10-08T10:35:25.605Z,18.89
2022-10-08T10:37:58.295Z,18.85
2022-10-08T10:40:36.717Z,18.93
2022-10-08T10:43:17.594Z,19.06
2022-10-08T10:45:51.640Z,18.74
2022-10-08T10:48:19.779Z,18.81
2022-10-08T10:50:59.574Z,18.74
2022-10-08T10:53:34.959Z,18.98
2022-10-08T10:56:09.716Z,18.96
2022-10-08T10:58:45.454Z,18.95
2022-10-08T11:01:23.526Z,18.99
2022-10-08T11:04:01.795Z,19.22
2022-10-08T11:06:51.882Z,19.38
2022-10-08T11:09:25.301Z,19.58
2022-10-08T11:11:55.878Z,19.67
2022-10-08T11:14:37.704Z,19.80
2022-10-08T11:17:21.943Z,19.64
2022-10-08T11:19:57.593Z,19.70
2022-10-08T11:22:31.243Z,19.66
2022-10-08T11:25:13.862Z,19.80
2022-10-08T11:27:49.585Z,19.84
2022-10-08T11:30:20.505Z,19.76
2022-10-08T11:32:54.421Z,19.78
2022-10-08T11:35:30.109Z,19.89
2022-10-08T11:38:05.166Z,19.94
2022-10-08T11:40:36.494Z,20.07
2022-10-08T11:43:07.401Z,20.08
2022-10-08T11:45:38.245Z,20.16
2022-10-08T11:48:31.636Z,20.31
2022-10-08T11:51:38.446Z,20.47
2022-10-08T11:54:12.465Z,20.39
2022-10-08T11:56:42.849Z,20.45
2022-10-08T11:59:28.642Z,20.33
2022-10-08T12:01:58.832Z,20.53
2022-10-08T12:04:32.498Z,20.19
2022-10-08T12:07:19.232Z,20.11
2022-10-08T12:10:38.155Z,19.93
2022-10-08T12:13:28.510Z,20.03
2022-10-08T12:16:06.863Z,20.27
2022-10-08T12:18:52.998Z,20.19
2022-10-08T12:21:50.697Z,20.07
2022-10-08T12:25:00.629Z,20.04
2022-10-08T12:27:34.409Z,20.13
2022-10-08T12:30:04.776Z,20.23
2022-10-08T12:32:34.273Z,20.19
2022-10-08T12:35:02.843Z,20.23
2022-10-08T12:38:13.631Z,20.22
2022-10-08T12:40:44.258Z,20.25
2022-10-08T12:43:23.785Z,20.22
2022-10-08T12:45:58.775Z,20.14
2022-10-08T12:48:34.402Z,20.14
2022-10-08T12:51:18.103Z,20.31
2022-10-08T12:53:48.345Z,20.26
2022-10-08T12:56:19.307Z,20.40
2022-10-08T12:58:47.948Z,20.41
2022-10-08T13:01:18.592Z,20.48
2022-10-08T13:03:47.835Z,20.37
2022-10-08T13:06:18.499Z,20.54
2022-10-08T13:08:50.538Z,20.46
2022-10-08T13:11:19.509Z,20.37
2022-10-08T13:13:51.007Z,20.38
2022-10-08T13:16:21.207Z,20.42
2022-10-08T13:18:53.558Z,20.41
2022-10-08T13:21:37.680Z,20.47
2022-10-08T13:24:32.047Z,20.54
2022-10-08T13:27:00.553Z,20.56
2022-10-08T13:29:32.784Z,20.57
2022-10-08T13:32:03.247Z,20.55
2022-10-08T13:34:33.220Z,20.48
2022-10-08T13:37:03.685Z,20.46
2022-10-08T13:39:35.147Z,20.37
2022-10-08T13:42:08.463Z,20.42
2022-10-08T13:44:38.311Z,20.45
2022-10-08T13:47:09.335Z,20.44
2022-10-08T13:49:38.499Z,20.52
2022-10-08T13:52:10.125Z,20.48
2022-10-08T13:54:42.302Z,20.61
2022-10-08T13:57:10.634Z,20.60
2022-10-08T13:59:38.885Z,20.65
2022-10-08T14:02:08.056Z,20.66
2022-10-08T14:04:36.100Z,20.72
2022-10-08T14:07:04.963Z,20.77
2022-10-08T14:09:33.166Z,20.78
2022-10-08T14:12:05.313Z,20.81
2022-10-08T14:14:33.499Z,20.76
2022-10-08T14:17:01.589Z,20.74
2022-10-08T14:19:29.682Z,20.65
2022-10-08T14:21:57.934Z,20.63
2022-10-08T14:24:27.125Z,20.72
2022-10-08T14:26:55.209Z,20.75
2022-10-08T14:29:24.721Z,20.78
2022-10-08T14:31:53.710Z,20.71
2022-10-08T14:34:21.811Z,20.82
2022-10-08T14:36:55.222Z,20.88
2022-10-08T14:39:25.009Z,20.92
2022-10-08T14:41:54.047Z,20.86
2022-10-08T14:44:22.699Z,20.73
2022-10-08T14:46:53.196Z,20.58
2022-10-08T14:49:21.396Z,20.39
2022-10-08T14:51:50.434Z,20.34
2022-10-08T14:54:19.138Z,20.23
2022-10-08T14:56:48.286Z,20.14
2022-10-08T14:59:16.649Z,20.06
2022-10-08T15:01:46.436Z,20.07
2022-10-08T15:04:16.444Z,20.04
2022-10-08T15:06:44.536Z,19.99
2022-10-08T15:09:13.392Z,19.99
2022-10-08T15:11:41.517Z,19.94
2022-10-08T15:14:09.813Z,19.99
2022-10-08T15:16:39.964Z,19.94
2022-10-08T15:19:09.122Z,19.84
2022-10-08T15:21:39.797Z,19.81
2022-10-08T15:24:08.959Z,19.72
2022-10-08T15:26:38.223Z,19.69
2022-10-08T15:29:06.446Z,19.60
2022-10-08T15:31:35.608Z,19.55
2022-10-08T15:34:03.713Z,19.52
2022-10-08T15:36:34.193Z,19.47
2022-10-08T15:39:07.623Z,19.43
2022-10-08T15:41:37.151Z,19.30
2022-10-08T15:44:09.785Z,19.30
2022-10-08T15:46:39.035Z,19.22
2022-10-08T15:49:08.229Z,19.17
2022-10-08T15:51:36.289Z,19.11
2022-10-08T15:54:07.554Z,19.08
2022-10-08T15:56:36.701Z,19.00
2022-10-08T15:59:06.494Z,18.89
2022-10-08T16:01:34.803Z,18.88
2022-10-08T16:04:03.945Z,18.88
2022-10-08T16:06:35.010Z,18.80
2022-10-08T16:09:05.024Z,18.74
2022-10-08T16:11:36.353Z,18.73
2022-10-08T16:14:08.413Z,18.71
2022-10-08T16:16:36.961Z,18.66
2022-10-08T16:19:06.925Z,18.64
2022-10-08T16:21:36.109Z,18.56
2022-10-08T16:24:04.425Z,18.55
2022-10-08T16:26:33.848Z,18.50
2022-10-08T16:29:06.470Z,18.47
2022-10-08T16:31:36.175Z,18.38
2022-10-08T16:34:07.655Z,18.37
2022-10-08T16:36:37.414Z,18.29
2022-10-08T16:39:07.320Z,18.27
2022-10-08T16:41:36.542Z,18.29
2022-10-08T16:44:12.576Z,18.24
2022-10-08T16:46:42.434Z,18.19
2022-10-08T16:49:18.455Z,18.09
2022-10-08T16:51:51.781Z,18.08
2022-10-08T16:54:20.209Z,18.10
2022-10-08T16:56:48.972Z,18.07
2022-10-08T16:59:20.209Z,18.00
2022-10-08T17:01:50.944Z,18.06
2022-10-08T17:04:19.998Z,18.04
2022-10-08T17:06:49.150Z,18.04
2022-10-08T17:09:17.699Z,17.94
2022-10-08T17:11:46.153Z,17.87
2022-10-08T17:14:14.349Z,17.83
2022-10-08T17:16:46.491Z,17.80
2022-10-08T17:19:15.065Z,17.80
2022-10-08T17:21:44.964Z,17.78
2022-10-08T17:24:14.674Z,17.74
2022-10-08T17:26:44.569Z,17.72
2022-10-08T17:29:13.503Z,17.70
2022-10-08T17:31:42.995Z,17.67
2022-10-08T17:34:13.827Z,17.69
2022-10-08T17:36:44.197Z,17.71
2022-10-08T17:39:15.162Z,17.71
2022-10-08T17:41:44.658Z,17.63
2022-10-08T17:44:19.692Z,17.54
2022-10-08T17:46:49.198Z,17.55
2022-10-08T17:49:21.811Z,17.52
2022-10-08T17:51:51.484Z,17.57
2022-10-08T17:54:21.826Z,17.48
2022-10-08T17:56:52.477Z,17.40
2022-10-08T17:59:22.806Z,17.60
2022-10-08T18:01:52.442Z,17.58
2022-10-08T18:04:23.596Z,17.56
2022-10-08T18:06:52.981Z,17.54
2022-10-08T18:09:22.909Z,17.65
2022-10-08T18:11:53.738Z,18.00
2022-10-08T18:14:23.816Z,17.98
2022-10-08T18:16:52.950Z,18.15
2022-10-08T18:19:24.061Z,18.13
2022-10-08T18:21:54.832Z,18.15
2022-10-08T18:24:26.096Z,18.12
2022-10-08T18:26:59.458Z,18.06
2022-10-08T18:29:30.860Z,18.08
2022-10-08T18:31:59.918Z,18.01
2022-10-08T18:34:31.325Z,17.96
2022-10-08T18:37:00.125Z,18.10
2022-10-08T18:39:30.911Z,18.14
2022-10-08T18:42:02.300Z,17.96
2022-10-08T18:44:31.946Z,17.97
2022-10-08T18:47:05.239Z,17.89
2022-10-08T18:49:37.188Z,17.87
2022-10-08T18:52:06.520Z,17.98
2022-10-08T18:54:36.099Z,17.87
2022-10-08T18:57:05.868Z,18.01
2022-10-08T18:59:35.276Z,17.88
2022-10-08T19:02:05.729Z,17.89
2022-10-08T19:04:36.210Z,17.84
2022-10-08T19:07:05.692Z,17.82
2022-10-08T19:09:34.104Z,17.74
2022-10-08T19:12:03.735Z,17.82
2022-10-08T19:14:32.401Z,17.77
2022-10-08T19:17:02.758Z,17.90
2022-10-08T19:19:32.897Z,17.95
2022-10-08T19:22:02.911Z,17.87
2022-10-08T19:24:31.844Z,17.76
2022-10-08T19:27:00.247Z,18.06
2022-10-08T19:29:33.808Z,17.98
2022-10-08T19:32:04.084Z,17.84
2022-10-08T19:34:33.980Z,17.96
2022-10-08T19:37:05.363Z,17.87
2022-10-08T19:39:35.003Z,17.93
2022-10-08T19:42:04.844Z,17.94
2022-10-08T19:44:38.243Z,17.84
2022-10-08T19:47:08.656Z,17.88
2022-10-08T19:49:37.869Z,18.05
2022-10-08T19:52:09.380Z,17.94
2022-10-08T19:54:39.334Z,17.85
2022-10-08T19:57:09.693Z,17.79
2022-10-08T19:59:37.890Z,18.02
2022-10-08T20:02:06.160Z,17.87
2022-10-08T20:04:34.490Z,17.85
2022-10-08T20:07:02.527Z,17.83
2022-10-08T20:09:36.364Z,17.84
2022-10-08T20:12:09.151Z,17.87
2022-10-08T20:14:37.773Z,17.86
2022-10-08T20:17:06.132Z,17.82
2022-10-08T20:19:34.353Z,17.84
2022-10-08T20:22:02.675Z,17.87
2022-10-08T20:24:32.452Z,17.93
2022-10-08T20:27:00.548Z,18.02
2022-10-08T20:29:30.956Z,17.99
2022-10-08T20:32:00.752Z,17.87
2022-10-08T20:34:31.745Z,17.96
2022-10-08T20:37:01.638Z,17.89
2022-10-08T20:39:30.312Z,17.86
2022-10-08T20:42:00.185Z,17.90
2022-10-08T20:44:28.292Z,17.81
2022-10-08T20:46:56.448Z,17.92
2022-10-08T20:49:24.822Z,17.86
2022-10-08T20:51:53.048Z,17.84
2022-10-08T20:54:21.175Z,17.86
2022-10-08T20:56:49.331Z,18.09
2022-10-08T20:59:20.090Z,17.98
2022-10-08T21:01:50.396Z,17.99
2022-10-08T21:04:18.987Z,17.81
2022-10-08T21:06:49.022Z,17.85
2022-10-08T21:09:18.639Z,17.85
2022-10-08T21:11:47.142Z,17.96
2022-10-08T21:14:17.079Z,17.81
2022-10-08T21:16:46.851Z,17.94
2022-10-08T21:19:16.193Z,17.78
2022-10-08T21:21:44.459Z,17.93
2022-10-08T21:24:12.506Z,17.83
2022-10-08T21:26:42.137Z,17.80
2022-10-08T21:29:12.025Z,17.81
2022-10-08T21:31:41.921Z,17.90
2022-10-08T21:34:11.719Z,17.84
2022-10-08T21:36:41.098Z,17.94
2022-10-08T21:39:11.529Z,17.96
2022-10-08T21:41:39.543Z,17.80
2022-10-08T21:44:08.887Z,17.78
2022-10-08T21:46:39.518Z,17.76
2022-10-08T21:49:09.269Z,17.94
2022-10-08T21:51:38.667Z,17.83
2022-10-08T21:54:07.602Z,17.72
2022-10-08T21:56:38.242Z,17.68
2022-10-08T21:59:07.707Z,17.48
2022-10-08T22:01:37.893Z,17.78
2022-10-08T22:04:08.114Z,17.82
2022-10-08T22:06:39.148Z,17.56
2022-10-08T22:09:08.680Z,17.84
2022-10-08T22:11:36.716Z,17.68
2022-10-08T22:14:04.820Z,17.62
2022-10-08T22:16:32.971Z,17.47
2022-10-08T22:19:01.196Z,17.64
2022-10-08T22:21:29.520Z,17.68
2022-10-08T22:23:58.952Z,17.53
2022-10-08T22:26:29.207Z,17.61
2022-10-08T22:28:57.511Z,17.35
2022-10-08T22:31:25.661Z,17.58
2022-10-08T22:33:54.125Z,17.56
2022-10-08T22:36:23.808Z,17.41
2022-10-08T22:38:52.130Z,17.38
2022-10-08T22:41:22.723Z,17.56
2022-10-08T22:43:50.845Z,17.57
2022-10-08T22:46:20.368Z,17.47
2022-10-08T22:48:48.704Z,17.54
2022-10-08T22:51:17.767Z,17.51
2022-10-08T22:53:46.166Z,17.32
2022-10-08T22:56:17.096Z,17.45
2022-10-08T22:58:47.055Z,17.33
2022-10-08T23:01:16.591Z,17.45
2022-10-08T23:03:44.872Z,17.25
2022-10-08T23:06:15.806Z,17.21
2022-10-08T23:08:46.324Z,17.33
2022-10-08T23:11:15.478Z,17.33
2022-10-08T23:13:45.604Z,17.21
2022-10-08T23:16:16.548Z,17.37
2022-10-08T23:18:46.305Z,17.31
2022-10-08T23:21:16.633Z,17.30
2022-10-08T23:23:45.445Z,17.33
2022-10-08T23:26:14.089Z,17.30
2022-10-08T23:28:42.552Z,17.22
2022-10-08T23:31:12.735Z,17.20
2022-10-08T23:33:44.203Z,17.14
2022-10-08T23:36:14.280Z,17.17
2022-10-08T23:38:42.284Z,17.23
2022-10-08T23:41:11.559Z,17.16
2022-10-08T23:43:40.512Z,17.13
2022-10-08T23:46:09.806Z,17.10
2022-10-08T23:48:38.439Z,17.12
2022-10-08T23:51:09.186Z,17.03
2022-10-08T23:53:37.568Z,16.98
2022-10-08T23:56:06.613Z,16.99
2022-10-08T23:58:34.844Z,17.05
